createdAt,value
2018-11-06T00:01:44.135Z,18.30
2018-11-06T00:04:12.633Z,19.23
2018-11-06T00:06:41.191Z,16.90
2018-11-06T00:09:09.755Z,15.63
2018-11-06T00:11:38.296Z,16.07
2018-11-06T00:14:06.810Z,16.83
2018-11-06T00:16:35.313Z,19.17
2018-11-06T00:19:03.825Z,19.77
2018-11-06T00:21:32.431Z,19.43
2018-11-06T00:24:00.950Z,20.50
2018-11-06T00:26:29.442Z,19.07
2018-11-06T00:28:57.922Z,17.10
2018-11-06T00:31:26.440Z,19.27
2018-11-06T00:33:54.990Z,18.73
2018-11-06T00:36:23.618Z,18.63
2018-11-06T00:38:52.142Z,17.20
2018-11-06T00:41:20.651Z,17.50
2018-11-06T00:43:49.195Z,17.67
2018-11-06T00:46:17.726Z,18.30
2018-11-06T00:48:46.325Z,19.00
2018-11-06T00:51:14.886Z,18.03
2018-11-06T00:53:43.421Z,18.07
2018-11-06T00:56:11.991Z,19.70
2018-11-06T00:58:40.539Z,18.03
2018-11-06T01:01:09.046Z,17.60
2018-11-06T01:03:42.654Z,18.57
2018-11-06T01:06:11.259Z,18.03
2018-11-06T01:08:39.768Z,18.23
2018-11-06T01:11:08.315Z,17.47
2018-11-06T01:13:36.872Z,19.00
2018-11-06T01:16:05.918Z,18.60
2018-11-06T01:18:34.606Z,19.97
2018-11-06T01:21:03.273Z,18.10
2018-11-06T01:23:31.791Z,17.00
2018-11-06T01:26:00.428Z,16.83
2018-11-06T01:28:28.995Z,15.93
2018-11-06T01:30:57.674Z,16.13
2018-11-06T01:33:26.267Z,16.93
2018-11-06T01:35:54.842Z,16.83
2018-11-06T01:38:23.424Z,17.10
2018-11-06T01:40:52.025Z,16.83
2018-11-06T01:43:20.735Z,15.47
2018-11-06T01:45:49.299Z,15.53
2018-11-06T01:48:17.982Z,19.27
2018-11-06T01:50:46.584Z,18.90
2018-11-06T01:53:15.215Z,17.10
2018-11-06T01:55:43.834Z,16.50
2018-11-06T01:58:12.413Z,17.03
2018-11-06T02:00:41.009Z,16.27
2018-11-06T02:03:09.655Z,19.77
2018-11-06T02:05:38.361Z,19.93
2018-11-06T02:08:07.038Z,17.40
2018-11-06T02:10:35.788Z,17.60
2018-11-06T02:13:04.594Z,17.20
2018-11-06T02:15:33.328Z,16.43
2018-11-06T02:18:01.965Z,15.80
2018-11-06T02:20:30.525Z,16.27
2018-11-06T02:22:59.164Z,16.53
2018-11-06T02:25:27.829Z,15.03
2018-11-06T02:27:56.461Z,17.60
2018-11-06T02:30:25.067Z,21.87
2018-11-06T02:32:53.779Z,21.87
2018-11-06T02:35:22.411Z,23.50
2018-11-06T02:37:51.042Z,21.50
2018-11-06T02:40:19.711Z,17.87
2018-11-06T02:42:48.289Z,17.67
2018-11-06T02:45:16.923Z,16.43
2018-11-06T02:47:45.516Z,16.77
2018-11-06T02:50:14.938Z,15.33
2018-11-06T02:52:44.456Z,16.37
2018-11-06T02:55:13.611Z,16.83
2018-11-06T02:57:42.739Z,15.73
2018-11-06T03:00:14.118Z,17.23
2018-11-06T03:02:43.189Z,16.10
2018-11-06T03:05:11.807Z,18.20
2018-11-06T03:07:40.751Z,16.67
2018-11-06T03:10:10.495Z,18.10
2018-11-06T03:12:39.992Z,16.80
2018-11-06T03:15:09.410Z,17.23
2018-11-06T03:17:38.203Z,17.50
2018-11-06T03:20:07.092Z,18.90
2018-11-06T03:22:35.658Z,20.90
2018-11-06T03:25:04.506Z,22.73
2018-11-06T03:27:33.190Z,22.97
2018-11-06T03:30:01.731Z,19.27
2018-11-06T03:32:30.543Z,19.03
2018-11-06T03:34:59.161Z,17.70
2018-11-06T03:37:27.817Z,18.60
2018-11-06T03:39:56.463Z,19.60
2018-11-06T03:42:25.059Z,23.07
2018-11-06T03:44:53.624Z,24.93
2018-11-06T03:47:22.282Z,25.27
2018-11-06T03:49:50.829Z,23.17
2018-11-06T03:52:19.430Z,23.83
2018-11-06T03:54:48.010Z,26.57
2018-11-06T03:57:16.523Z,21.57
2018-11-06T03:59:45.096Z,16.80
2018-11-06T04:02:13.703Z,18.73
2018-11-06T04:04:42.262Z,18.23
2018-11-06T04:07:10.858Z,17.70
2018-11-06T04:09:39.447Z,17.10
2018-11-06T04:12:07.993Z,16.77
2018-11-06T04:14:36.538Z,18.47
2018-11-06T04:17:05.035Z,20.30
2018-11-06T04:19:33.773Z,18.53
2018-11-06T04:22:02.518Z,18.80
2018-11-06T04:24:31.040Z,20.77
2018-11-06T04:26:59.553Z,19.57
2018-11-06T04:29:28.062Z,17.73
2018-11-06T04:31:56.528Z,18.03
2018-11-06T04:34:25.054Z,17.77
2018-11-06T04:36:53.560Z,17.23
2018-11-06T04:39:22.135Z,17.03
2018-11-06T04:41:50.614Z,17.23
2018-11-06T04:44:19.222Z,17.13
2018-11-06T04:46:47.925Z,15.63
2018-11-06T04:49:16.414Z,17.07
2018-11-06T04:51:44.878Z,15.63
2018-11-06T04:54:13.363Z,17.00
2018-11-06T04:56:41.794Z,18.77
2018-11-06T04:59:10.274Z,18.57
2018-11-06T05:01:38.759Z,17.40
2018-11-06T05:04:07.298Z,18.70
2018-11-06T05:06:35.751Z,19.03
2018-11-06T05:09:05.551Z,16.13
2018-11-06T05:11:34.158Z,16.93
2018-11-06T05:14:02.695Z,17.20
2018-11-06T05:16:31.259Z,19.37
2018-11-06T05:18:59.856Z,19.63
2018-11-06T05:21:28.375Z,22.97
2018-11-06T05:23:56.991Z,35.83
2018-11-06T05:26:25.527Z,37.37
2018-11-06T05:28:54.179Z,40.10
2018-11-06T05:31:22.663Z,38.93
2018-11-06T05:33:51.163Z,50.90
2018-11-06T05:36:19.858Z,45.23
2018-11-06T05:38:48.576Z,51.27
2018-11-06T05:41:17.059Z,48.63
2018-11-06T05:43:45.608Z,46.20
2018-11-06T05:46:14.109Z,44.83
2018-11-06T05:48:42.647Z,49.33
2018-11-06T05:51:11.158Z,49.60
2018-11-06T05:53:39.729Z,46.40
2018-11-06T05:56:08.275Z,45.70
2018-11-06T05:58:36.771Z,44.23
2018-11-06T06:01:06.375Z,41.13
2018-11-06T06:03:34.858Z,38.20
2018-11-06T06:06:03.373Z,39.37
2018-11-06T06:08:31.944Z,37.80
2018-11-06T06:11:00.574Z,37.10
2018-11-06T06:13:29.054Z,32.27
2018-11-06T06:15:57.637Z,33.13
2018-11-06T06:18:26.130Z,29.93
2018-11-06T06:20:54.671Z,29.77
2018-11-06T06:23:23.182Z,31.83
2018-11-06T06:25:51.743Z,29.73
2018-11-06T06:28:20.301Z,31.27
2018-11-06T06:30:48.883Z,28.93
2018-11-06T06:33:17.402Z,28.77
2018-11-06T06:35:45.961Z,28.47
2018-11-06T06:38:14.454Z,29.00
2018-11-06T06:40:43.004Z,28.97
2018-11-06T06:43:11.480Z,28.23
2018-11-06T06:45:39.982Z,26.93
2018-11-06T06:48:08.523Z,27.37
2018-11-06T06:50:37.054Z,28.63
2018-11-06T06:53:05.683Z,29.10
2018-11-06T06:55:34.179Z,26.33
2018-11-06T06:58:02.639Z,27.27
2018-11-06T07:00:31.135Z,26.97
2018-11-06T07:02:59.632Z,26.90
2018-11-06T07:05:28.148Z,25.23
2018-11-06T07:07:56.631Z,25.07
2018-11-06T07:10:25.173Z,24.97
2018-11-06T07:12:53.747Z,25.23
2018-11-06T07:15:22.913Z,24.50
2018-11-06T07:17:52.015Z,25.07
2018-11-06T07:20:21.902Z,24.13
2018-11-06T07:22:50.550Z,23.70
2018-11-06T07:25:19.079Z,23.47
2018-11-06T07:27:48.147Z,22.70
2018-11-06T07:30:18.857Z,22.77
2018-11-06T07:32:47.523Z,22.67
2018-11-06T07:35:16.734Z,22.10
2018-11-06T07:37:45.438Z,22.03
2018-11-06T07:40:15.058Z,23.33
2018-11-06T07:42:43.530Z,21.70
2018-11-06T07:45:14.505Z,19.60
2018-11-06T07:47:42.985Z,20.77
2018-11-06T07:50:12.197Z,19.83
2018-11-06T07:52:40.886Z,20.10
2018-11-06T07:55:11.646Z,19.80
2018-11-06T07:57:40.258Z,18.67
2018-11-06T08:00:14.751Z,20.50
2018-11-06T08:02:43.936Z,20.13
2018-11-06T08:05:12.477Z,19.50
2018-11-06T08:07:40.999Z,20.03
2018-11-06T08:10:10.365Z,19.70
2018-11-06T08:12:39.617Z,19.07
2018-11-06T08:15:08.506Z,18.83
2018-11-06T08:17:37.099Z,17.93
2018-11-06T08:20:06.015Z,17.47
2018-11-06T08:22:34.554Z,17.37
2018-11-06T08:25:03.135Z,17.73
2018-11-06T08:27:31.604Z,17.13
2018-11-06T08:30:00.063Z,16.43
2018-11-06T08:32:28.918Z,16.00
2018-11-06T08:34:57.014Z,16.60
2018-11-06T08:37:25.493Z,16.97
2018-11-06T08:39:53.933Z,16.13
2018-11-06T08:42:22.469Z,16.70
2018-11-06T08:44:50.858Z,16.33
2018-11-06T08:47:19.332Z,15.60
2018-11-06T08:49:47.758Z,14.10
2018-11-06T08:52:16.237Z,13.70
2018-11-06T08:54:44.836Z,15.80
2018-11-06T08:57:13.338Z,14.17
2018-11-06T08:59:41.809Z,14.37
2018-11-06T09:02:10.333Z,15.07
2018-11-06T09:04:38.756Z,14.93
2018-11-06T09:07:07.278Z,15.03
2018-11-06T09:09:35.730Z,15.20
2018-11-06T09:12:04.190Z,14.50
2018-11-06T09:14:32.634Z,14.97
2018-11-06T09:17:01.085Z,16.17
2018-11-06T09:19:29.526Z,15.30
2018-11-06T09:21:57.953Z,14.50
2018-11-06T09:24:26.413Z,14.27
2018-11-06T09:26:54.989Z,14.70
2018-11-06T09:29:23.441Z,15.60
2018-11-06T09:31:51.891Z,16.67
2018-11-06T09:34:20.398Z,15.97
2018-11-06T09:36:48.875Z,15.03
2018-11-06T09:39:17.338Z,15.17
2018-11-06T09:41:45.783Z,15.37
2018-11-06T09:44:14.247Z,15.53
2018-11-06T09:46:42.755Z,15.97
2018-11-06T09:49:11.235Z,15.10
2018-11-06T09:51:39.719Z,15.23
2018-11-06T09:54:08.273Z,15.40
2018-11-06T09:56:36.777Z,14.93
2018-11-06T09:59:05.318Z,14.83
2018-11-06T10:01:33.775Z,13.63
2018-11-06T10:04:02.292Z,14.40
2018-11-06T10:06:30.859Z,13.93
2018-11-06T10:08:59.301Z,14.10
2018-11-06T10:11:27.830Z,13.40
2018-11-06T10:13:56.242Z,13.80
2018-11-06T10:16:24.701Z,13.60
2018-11-06T10:18:53.786Z,12.77
2018-11-06T10:21:22.294Z,13.87
2018-11-06T10:23:50.809Z,13.40
2018-11-06T10:26:19.357Z,14.03
2018-11-06T10:28:47.813Z,12.97
2018-11-06T10:31:16.265Z,12.90
2018-11-06T10:33:45.162Z,12.47
2018-11-06T10:36:13.645Z,12.43
2018-11-06T10:38:42.094Z,12.73
2018-11-06T10:41:10.574Z,11.77
2018-11-06T10:43:39.066Z,11.77
2018-11-06T10:46:07.588Z,11.33
2018-11-06T10:48:36.185Z,11.90
2018-11-06T10:51:04.902Z,11.30
2018-11-06T10:53:33.409Z,11.87
2018-11-06T10:56:01.909Z,11.23
2018-11-06T10:58:30.389Z,10.80
2018-11-06T11:01:04.000Z,11.03
2018-11-06T11:03:35.489Z,12.53
2018-11-06T11:06:03.970Z,12.70
2018-11-06T11:08:32.418Z,12.13
2018-11-06T11:11:00.917Z,11.27
2018-11-06T11:13:30.114Z,13.37
2018-11-06T11:15:58.731Z,12.50
2018-11-06T11:18:27.177Z,13.47
2018-11-06T11:20:56.234Z,13.67
2018-11-06T11:23:24.687Z,12.33
2018-11-06T11:25:53.227Z,13.80
2018-11-06T11:28:21.721Z,12.80
2018-11-06T11:30:50.177Z,13.90
2018-11-06T11:33:19.818Z,13.57
2018-11-06T11:35:48.282Z,13.70
2018-11-06T11:38:16.757Z,13.70
2018-11-06T11:40:45.224Z,12.90
2018-11-06T11:43:13.701Z,74.17
2018-11-06T11:45:42.202Z,12.23
2018-11-06T11:48:10.597Z,11.97
2018-11-06T11:50:39.065Z,90.90
2018-11-06T11:53:07.525Z,12.10
2018-11-06T11:55:36.001Z,13.57
2018-11-06T11:58:04.674Z,11.87
2018-11-06T12:00:37.164Z,12.17
2018-11-06T12:03:06.538Z,13.00
2018-11-06T12:05:35.004Z,12.43
2018-11-06T12:08:03.449Z,12.80
2018-11-06T12:10:32.096Z,11.90
2018-11-06T12:13:00.601Z,12.07
2018-11-06T12:15:29.131Z,12.40
2018-11-06T12:17:57.865Z,17.23
2018-11-06T12:20:27.106Z,11.93
2018-11-06T12:22:55.569Z,11.90
2018-11-06T12:25:24.414Z,12.87
2018-11-06T12:27:52.521Z,12.07
2018-11-06T12:30:21.229Z,12.83
2018-11-06T12:32:49.696Z,13.90
2018-11-06T12:35:18.123Z,20.27
2018-11-06T12:37:46.610Z,14.70
2018-11-06T12:40:15.442Z,13.80
2018-11-06T12:42:44.068Z,13.80
2018-11-06T12:45:16.063Z,13.57
2018-11-06T12:47:45.125Z,13.73
2018-11-06T12:50:13.663Z,12.90
2018-11-06T12:52:42.269Z,12.83
2018-11-06T12:55:12.384Z,12.13
2018-11-06T12:57:40.846Z,12.57
2018-11-06T13:00:13.022Z,12.57
2018-11-06T13:02:41.616Z,12.30
2018-11-06T13:05:10.473Z,12.50
2018-11-06T13:07:40.022Z,11.40
2018-11-06T13:10:08.900Z,11.83
2018-11-06T13:12:37.461Z,11.83
2018-11-06T13:15:06.705Z,11.87
2018-11-06T13:17:35.586Z,12.53
2018-11-06T13:20:04.498Z,11.17
2018-11-06T13:22:32.961Z,11.53
2018-11-06T13:25:01.402Z,12.27
2018-11-06T13:27:29.890Z,12.97
2018-11-06T13:29:58.329Z,12.67
2018-11-06T13:32:26.911Z,13.37
2018-11-06T13:34:55.260Z,13.10
2018-11-06T13:37:23.717Z,12.77
2018-11-06T13:39:52.154Z,13.80
2018-11-06T13:42:20.708Z,14.17
2018-11-06T13:44:49.412Z,13.87
2018-11-06T13:47:17.550Z,15.03
2018-11-06T13:49:45.977Z,14.10
2018-11-06T13:52:14.595Z,14.83
2018-11-06T13:54:42.908Z,14.57
2018-11-06T13:57:11.381Z,14.53
2018-11-06T13:59:40.189Z,16.00
2018-11-06T14:02:08.656Z,15.93
2018-11-06T14:04:37.072Z,17.20
2018-11-06T14:07:05.735Z,17.33
2018-11-06T14:09:34.188Z,18.00
2018-11-06T14:12:02.659Z,17.77
2018-11-06T14:14:31.128Z,19.77
2018-11-06T14:16:59.556Z,18.77
2018-11-06T14:19:27.966Z,18.97
2018-11-06T14:21:56.441Z,19.27
2018-11-06T14:24:24.902Z,19.53
2018-11-06T14:26:53.406Z,19.37
2018-11-06T14:29:21.798Z,18.43
2018-11-06T14:31:50.324Z,18.60
2018-11-06T14:34:18.711Z,17.97
2018-11-06T14:36:47.151Z,18.03
2018-11-06T14:39:15.611Z,18.03
2018-11-06T14:41:44.009Z,19.13
2018-11-06T14:44:12.453Z,17.70
2018-11-06T14:46:40.922Z,19.17
2018-11-06T14:49:09.400Z,18.23
2018-11-06T14:51:37.793Z,16.10
2018-11-06T14:54:06.259Z,16.70
2018-11-06T14:56:34.729Z,16.10
2018-11-06T14:59:03.161Z,16.80
2018-11-06T15:01:31.626Z,16.53
2018-11-06T15:04:00.281Z,15.67
2018-11-06T15:06:28.690Z,15.53
2018-11-06T15:08:57.114Z,15.70
2018-11-06T15:11:25.539Z,17.97
2018-11-06T15:13:54.015Z,17.30
2018-11-06T15:16:22.453Z,17.73
2018-11-06T15:18:50.892Z,16.53
2018-11-06T15:21:19.318Z,16.97
2018-11-06T15:23:47.762Z,16.27
2018-11-06T15:26:16.188Z,15.97
2018-11-06T15:28:44.625Z,15.57
2018-11-06T15:31:13.037Z,14.97
2018-11-06T15:33:41.650Z,14.20
2018-11-06T15:36:10.069Z,13.60
2018-11-06T15:38:38.517Z,14.57
2018-11-06T15:41:07.034Z,14.63
2018-11-06T15:43:35.409Z,14.53
2018-11-06T15:46:03.954Z,14.53
2018-11-06T15:48:32.454Z,13.67
2018-11-06T15:51:00.865Z,15.53
2018-11-06T15:53:29.292Z,15.17
2018-11-06T15:55:57.905Z,15.33
2018-11-06T15:58:26.341Z,16.13
2018-11-06T16:00:54.913Z,16.50
2018-11-06T16:03:23.249Z,16.70
2018-11-06T16:05:51.698Z,16.93
2018-11-06T16:08:20.236Z,16.03
2018-11-06T16:10:48.702Z,16.03
2018-11-06T16:13:17.174Z,16.13
2018-11-06T16:15:45.609Z,16.17
2018-11-06T16:18:14.040Z,16.27
2018-11-06T16:20:42.528Z,16.00
2018-11-06T16:23:10.957Z,16.90
2018-11-06T16:25:39.464Z,16.13
2018-11-06T16:28:07.898Z,15.27
2018-11-06T16:30:36.346Z,15.20
2018-11-06T16:33:04.938Z,15.47
2018-11-06T16:35:33.394Z,14.63
2018-11-06T16:38:01.842Z,15.17
2018-11-06T16:40:30.321Z,13.93
2018-11-06T16:42:58.766Z,14.03
2018-11-06T16:45:27.213Z,15.77
2018-11-06T16:47:55.658Z,14.13
2018-11-06T16:50:24.157Z,14.07
2018-11-06T16:52:52.617Z,15.43
2018-11-06T16:55:21.228Z,14.83
2018-11-06T16:57:49.660Z,15.80
2018-11-06T17:00:20.300Z,14.93
2018-11-06T17:02:48.545Z,15.30
2018-11-06T17:05:16.991Z,14.50
2018-11-06T17:07:45.697Z,14.03
2018-11-06T17:10:14.948Z,15.27
2018-11-06T17:12:43.421Z,21.60
2018-11-06T17:15:15.201Z,17.53
2018-11-06T17:17:44.573Z,17.17
2018-11-06T17:20:13.571Z,16.23
2018-11-06T17:22:41.997Z,14.33
2018-11-06T17:25:12.195Z,16.70
2018-11-06T17:27:40.657Z,15.93
2018-11-06T17:30:11.091Z,15.83
2018-11-06T17:32:40.034Z,17.33
2018-11-06T17:35:09.883Z,18.27
2018-11-06T17:37:38.994Z,18.53
2018-11-06T17:40:10.570Z,16.83
2018-11-06T17:42:39.050Z,16.80
2018-11-06T17:45:09.427Z,15.73
2018-11-06T17:47:38.030Z,15.20
2018-11-06T17:50:07.921Z,16.40
2018-11-06T17:52:36.381Z,16.10
2018-11-06T17:55:05.133Z,17.53
2018-11-06T17:57:33.514Z,17.40
2018-11-06T18:00:01.946Z,16.23
2018-11-06T18:02:30.409Z,15.00
2018-11-06T18:04:58.836Z,16.30
2018-11-06T18:07:27.274Z,17.40
2018-11-06T18:09:55.686Z,19.40
2018-11-06T18:12:24.174Z,17.90
2018-11-06T18:14:52.585Z,17.90
2018-11-06T18:17:21.092Z,17.40
2018-11-06T18:19:49.511Z,18.40
2018-11-06T18:22:17.949Z,18.10
2018-11-06T18:24:46.400Z,17.20
2018-11-06T18:27:14.841Z,18.67
2018-11-06T18:29:43.270Z,17.00
2018-11-06T18:32:11.768Z,17.77
2018-11-06T18:34:40.138Z,17.43
2018-11-06T18:37:08.590Z,18.13
2018-11-06T18:39:37.017Z,18.07
2018-11-06T18:42:05.518Z,16.63
2018-11-06T18:44:33.961Z,16.37
2018-11-06T18:47:02.405Z,16.63
2018-11-06T18:49:30.889Z,16.67
2018-11-06T18:51:59.302Z,16.30
2018-11-06T18:54:27.726Z,16.50
2018-11-06T18:56:56.170Z,16.80
2018-11-06T18:59:24.594Z,27.57
2018-11-06T19:01:53.045Z,22.97
2018-11-06T19:04:21.508Z,21.23
2018-11-06T19:06:49.954Z,21.30
2018-11-06T19:09:18.382Z,20.67
2018-11-06T19:11:46.861Z,20.47
2018-11-06T19:14:15.280Z,20.37
2018-11-06T19:16:43.746Z,19.00
2018-11-06T19:19:12.150Z,18.90
2018-11-06T19:21:40.563Z,20.10
2018-11-06T19:24:09.100Z,18.87
2018-11-06T19:26:37.401Z,17.67
2018-11-06T19:29:06.137Z,17.40
2018-11-06T19:31:34.557Z,17.97
2018-11-06T19:34:03.093Z,20.23
2018-11-06T19:36:31.599Z,17.17
2018-11-06T19:38:59.981Z,19.43
2018-11-06T19:41:28.393Z,20.03
2018-11-06T19:43:56.834Z,20.03
2018-11-06T19:46:25.229Z,16.97
2018-11-06T19:48:53.683Z,22.67
2018-11-06T19:51:22.106Z,18.10
2018-11-06T19:53:50.596Z,22.80
2018-11-06T19:56:19.010Z,21.10
2018-11-06T19:58:47.415Z,20.07
2018-11-06T20:01:15.853Z,19.17
2018-11-06T20:03:44.310Z,18.23
2018-11-06T20:06:12.722Z,19.30
2018-11-06T20:08:41.155Z,22.63
2018-11-06T20:11:09.572Z,23.43
2018-11-06T20:13:38.039Z,20.00
2018-11-06T20:16:06.502Z,19.83
2018-11-06T20:18:34.978Z,18.10
2018-11-06T20:21:03.433Z,17.90
2018-11-06T20:23:31.921Z,17.37
2018-11-06T20:26:00.906Z,17.70
2018-11-06T20:28:29.341Z,17.87
2018-11-06T20:30:57.766Z,18.07
2018-11-06T20:33:26.311Z,17.03
2018-11-06T20:35:54.662Z,16.63
2018-11-06T20:38:23.496Z,17.70
2018-11-06T20:40:51.914Z,16.87
2018-11-06T20:43:20.430Z,17.77
2018-11-06T20:45:48.813Z,16.67
2018-11-06T20:48:17.245Z,17.83
2018-11-06T20:50:45.902Z,16.80
2018-11-06T20:53:14.348Z,18.10
2018-11-06T20:55:43.277Z,15.93
2018-11-06T20:58:11.657Z,14.33
2018-11-06T21:00:40.310Z,14.97
2018-11-06T21:03:08.748Z,15.67
2018-11-06T21:05:37.209Z,16.03
2018-11-06T21:08:05.771Z,15.63
2018-11-06T21:10:34.197Z,16.03
2018-11-06T21:13:02.682Z,16.67
2018-11-06T21:15:31.107Z,16.07
2018-11-06T21:17:59.641Z,15.60
2018-11-06T21:20:28.006Z,17.03
2018-11-06T21:22:56.487Z,15.10
2018-11-06T21:25:24.970Z,15.27
2018-11-06T21:27:53.358Z,14.90
2018-11-06T21:30:22.150Z,14.20
2018-11-06T21:32:51.770Z,15.20
2018-11-06T21:35:20.315Z,15.47
2018-11-06T21:37:48.744Z,15.30
2018-11-06T21:40:22.050Z,15.20
2018-11-06T21:42:50.891Z,14.40
2018-11-06T21:45:19.594Z,15.43
2018-11-06T21:47:48.790Z,17.33
2018-11-06T21:50:17.616Z,16.03
2018-11-06T21:52:46.095Z,14.83
2018-11-06T21:55:15.899Z,14.67
2018-11-06T21:57:44.304Z,14.57
2018-11-06T22:00:14.410Z,14.83
2018-11-06T22:02:42.851Z,13.90
2018-11-06T22:05:12.488Z,13.93
2018-11-06T22:07:41.381Z,14.47
2018-11-06T22:10:12.031Z,14.67
2018-11-06T22:12:41.089Z,14.00
2018-11-06T22:15:10.807Z,14.27
2018-11-06T22:17:39.749Z,14.33
2018-11-06T22:20:09.657Z,14.33
2018-11-06T22:22:38.101Z,13.20
2018-11-06T22:25:06.696Z,13.10
2018-11-06T22:27:35.212Z,12.10
2018-11-06T22:30:03.831Z,12.63
2018-11-06T22:32:32.242Z,13.23
2018-11-06T22:35:00.690Z,12.33
2018-11-06T22:37:29.177Z,13.97
2018-11-06T22:39:57.555Z,12.40
2018-11-06T22:42:25.970Z,12.33
2018-11-06T22:44:54.398Z,11.63
2018-11-06T22:47:22.837Z,11.60
2018-11-06T22:49:51.274Z,11.43
2018-11-06T22:52:19.709Z,11.60
2018-11-06T22:54:48.115Z,11.07
2018-11-06T22:57:16.574Z,10.17
2018-11-06T22:59:44.990Z,10.07
2018-11-06T23:02:13.446Z,10.83
2018-11-06T23:04:41.878Z,11.27
2018-11-06T23:07:15.832Z,10.43
2018-11-06T23:09:44.198Z,10.47
2018-11-06T23:12:12.658Z,9.87
2018-11-06T23:14:41.078Z,9.57
2018-11-06T23:17:09.544Z,10.23
2018-11-06T23:19:37.994Z,11.30
2018-11-06T23:22:06.571Z,10.87
2018-11-06T23:24:34.993Z,10.23
2018-11-06T23:27:03.461Z,10.33
2018-11-06T23:29:31.894Z,10.13
2018-11-06T23:32:00.394Z,9.40
2018-11-06T23:34:28.810Z,9.57
2018-11-06T23:36:57.240Z,9.13
2018-11-06T23:39:25.682Z,8.20
2018-11-06T23:41:54.118Z,7.63
2018-11-06T23:44:22.541Z,7.93
2018-11-06T23:46:50.984Z,8.47
2018-11-06T23:49:19.438Z,8.50
2018-11-06T23:51:47.874Z,8.20
2018-11-06T23:54:16.323Z,8.87
2018-11-06T23:56:44.809Z,9.13
2018-11-06T23:59:13.222Z,8.00
